Time;durP1;ratioP1;P1;durP2;ratioP2;P2;SDS_P1;SDS_P2;PMS_P1;PMS_P2;Temp;Humidity;BMP_temperature;BMP_pressure;BME280_temperature;BME280_humidity;BME280_pressure;Samples;Min_cycle;Max_cycle;Signal;HPM_P1;HPM_P2
2022/12/28 00:00:28;;;;;;;11.38;8.75;;;;;;;8.70;61.93;95943.53;5044417;28;20025;-77
2022/12/28 00:02:55;;;;;;;10.65;8.30;;;;;;;8.74;61.93;95947.03;5028445;28;20053;-77
2022/12/28 00:05:20;;;;;;;11.65;8.15;;;;;;;8.76;61.88;95950.13;5044419;28;20025;-77
2022/12/28 00:07:46;;;;;;;11.85;8.70;;;;;;;8.75;61.53;95934.88;5044296;28;20037;-77
2022/12/28 00:10:11;;;;;;;11.20;8.40;;;;;;;8.87;61.67;95945.38;5044549;28;20036;-78
2022/12/28 00:12:37;;;;;;;11.10;7.93;;;;;;;8.84;61.54;95946.19;5044604;28;20021;-76
2022/12/28 00:15:02;;;;;;;11.85;8.52;;;;;;;8.87;61.39;95948.13;5046932;28;20036;-76
2022/12/28 00:17:28;;;;;;;10.30;8.27;;;;;;;8.83;61.45;95947.38;5049511;28;20036;-78
2022/12/28 00:19:53;;;;;;;10.57;8.05;;;;;;;8.93;61.33;95960.22;5032146;28;20046;-77
2022/12/28 00:22:19;;;;;;;11.15;8.52;;;;;;;8.97;61.04;95952.75;5048068;28;20028;-77
2022/12/28 00:24:44;;;;;;;13.35;7.95;;;;;;;8.92;60.95;95949.66;5032129;28;20029;-77
2022/12/28 00:27:10;;;;;;;13.38;9.50;;;;;;;9.01;60.81;95966.47;5051026;28;20025;-76
2022/12/28 00:29:35;;;;;;;10.43;8.02;;;;;;;8.99;60.89;95966.84;5050915;28;20048;-78
2022/12/28 00:32:01;;;;;;;10.10;7.47;;;;;;;8.90;60.76;95963.78;5051167;28;20037;-77
2022/12/28 00:34:26;;;;;;;10.85;8.25;;;;;;;8.91;60.91;95970.03;5048263;28;20025;-77
2022/12/28 00:36:52;;;;;;;9.73;7.45;;;;;;;8.89;61.00;95973.19;5048990;28;20029;-77
2022/12/28 00:39:18;;;;;;;11.15;8.02;;;;;;;8.87;61.13;95970.06;5048013;28;20525;-78
2022/12/28 00:41:43;;;;;;;10.55;8.52;;;;;;;8.83;61.53;95982.22;5048985;28;20021;-77
2022/12/28 00:44:09;;;;;;;12.40;9.00;;;;;;;8.73;61.88;95984.63;5048286;28;20032;-78
2022/12/28 00:46:34;;;;;;;13.65;9.27;;;;;;;8.69;62.07;95978.38;5048612;28;20052;-76
2022/12/28 00:49:00;;;;;;;15.00;10.02;;;;;;;8.60;62.31;95978.03;5049788;28;20029;-78
2022/12/28 00:51:25;;;;;;;12.57;9.70;;;;;;;8.64;62.61;95980.75;5049279;28;20037;-77
2022/12/28 00:53:51;;;;;;;13.23;9.90;;;;;;;8.58;62.67;95988.59;5048293;28;20090;-77
2022/12/28 00:56:18;;;;;;;13.15;10.07;;;;;;;8.50;62.79;95981.59;5049028;28;20021;-76
2022/12/28 00:58:43;;;;;;;12.32;10.35;;;;;;;8.45;63.26;95982.78;5031813;28;20040;-77
2022/12/28 01:01:14;;;;;;;13.10;10.68;;;;;;;8.39;63.60;95975.38;5047572;28;20021;-75
2022/12/28 01:03:40;;;;;;;15.07;11.63;;;;;;;8.31;63.76;95980.06;5015327;28;20029;-77
2022/12/28 01:06:06;;;;;;;14.85;11.10;;;;;;;8.28;63.95;95975.38;5031530;28;20045;-78
2022/12/28 01:08:32;;;;;;;13.98;10.65;;;;;;;8.29;64.17;95978.91;5031053;28;21995;-78
2022/12/28 01:10:57;;;;;;;17.35;11.63;;;;;;;8.28;64.08;95974.59;5031420;28;20471;-76
2022/12/28 01:13:22;;;;;;;14.18;11.60;;;;;;;8.29;64.16;95974.22;5047393;28;20041;-76
2022/12/28 01:15:48;;;;;;;17.30;12.25;;;;;;;8.27;63.92;95970.31;5047861;28;20032;-77
2022/12/28 01:18:14;;;;;;;16.33;11.75;;;;;;;8.28;63.73;95972.66;5047005;28;20029;-77
2022/12/28 01:20:39;;;;;;;15.85;12.57;;;;;;;8.29;63.78;95974.22;5049028;28;20031;-76
2022/12/28 01:23:05;;;;;;;16.90;12.57;;;;;;;8.19;64.06;95966.78;5048837;28;20028;-77
2022/12/28 01:25:31;;;;;;;16.20;12.20;;;;;;;8.14;63.82;95959.78;5047441;28;20025;-76
2022/12/28 01:27:57;;;;;;;17.17;12.73;;;;;;;8.15;63.80;95966.06;5048101;28;20047;-77
2022/12/28 01:30:22;;;;;;;17.45;13.35;;;;;;;8.18;63.54;95968.75;5048414;28;20511;-77
2022/12/28 01:32:48;;;;;;;16.50;12.32;;;;;;;8.16;63.25;95960.16;5048792;28;20025;-76
2022/12/28 01:35:13;;;;;;;17.60;12.65;;;;;;;8.08;63.44;95957.84;5048021;28;20021;-76
2022/12/28 01:37:39;;;;;;;18.33;13.57;;;;;;;8.09;63.54;95970.38;5047748;28;20025;-77
2022/12/28 01:40:05;;;;;;;17.67;13.55;;;;;;;8.04;63.48;95970.78;5047180;28;20048;-77
2022/12/28 01:42:31;;;;;;;17.98;13.73;;;;;;;8.01;63.43;95975.06;5048662;28;20051;-78
2022/12/28 01:44:56;;;;;;;18.65;13.15;;;;;;;7.99;63.37;95963.75;5048639;28;20032;-77
2022/12/28 01:47:30;;;;;;;16.88;13.18;;;;;;;7.98;63.26;95967.66;5047826;28;20029;-77
2022/12/28 01:50:05;;;;;;;17.42;14.38;;;;;;;7.98;63.04;95967.66;5031672;28;20033;-77
2022/12/28 01:52:59;;;;;;;18.42;14.15;;;;;;;7.94;63.06;95966.88;5047751;28;20470;-77
2022/12/28 01:55:27;;;;;;;19.60;14.63;;;;;;;7.89;63.03;95967.28;5047947;28;20045;-77
2022/12/28 01:58:10;;;;;;;18.58;14.25;;;;;;;7.89;62.93;95968.06;5047427;28;20051;-77
2022/12/28 02:00:35;;;;;;;21.45;15.45;;;;;;;7.89;62.84;95970.00;5032236;28;20352;-77
2022/12/28 02:03:09;;;;;;;22.10;15.10;;;;;;;7.94;62.62;95964.13;5047078;28;20476;-78
2022/12/28 02:05:40;;;;;;;19.73;14.02;;;;;;;7.90;62.49;95964.13;5031243;28;20048;-75
2022/12/28 02:08:12;;;;;;;19.90;14.20;;;;;;;7.93;62.13;95954.38;5030431;28;20487;-76
2022/12/28 02:10:37;;;;;;;20.20;14.40;;;;;;;7.96;61.94;95954.34;5030232;28;20101;-77
2022/12/28 02:13:03;;;;;;;21.30;14.02;;;;;;;7.94;61.85;95955.94;5047780;28;20029;-76
2022/12/28 02:15:29;;;;;;;20.27;14.93;;;;;;;7.89;61.65;95953.59;5029880;28;20029;-78
2022/12/28 02:17:54;;;;;;;20.80;14.65;;;;;;;7.89;61.75;95957.09;5030697;28;20033;-76
2022/12/28 02:20:20;;;;;;;21.92;14.98;;;;;;;7.84;61.96;95951.25;5029685;28;20028;-77
2022/12/28 02:23:01;;;;;;;18.58;14.60;;;;;;;7.82;61.68;95945.41;5030469;28;20032;-77
2022/12/28 02:25:51;;;;;;;19.23;14.00;;;;;;;7.78;61.46;95939.91;5046676;28;20032;-76
2022/12/28 02:28:19;;;;;;;21.02;14.68;;;;;;;7.72;61.29;95930.53;5047542;28;20070;-76
2022/12/28 02:30:59;;;;;;;17.45;13.30;;;;;;;7.69;61.24;95928.59;5047983;28;20054;-77
2022/12/28 02:33:37;;;;;;;19.13;13.90;;;;;;;7.70;61.37;95939.16;5030707;28;20040;-77
2022/12/28 02:36:06;;;;;;;21.35;14.15;;;;;;;7.77;60.81;95927.41;5029991;28;20426;-76
2022/12/28 02:38:51;;;;;;;21.58;14.20;;;;;;;7.73;60.67;95932.88;5045048;28;20059;-78
2022/12/28 02:41:18;;;;;;;18.42;13.10;;;;;;;7.71;60.61;95939.94;5030439;28;20039;-78
2022/12/28 02:43:44;;;;;;;18.77;13.55;;;;;;;7.66;60.61;95935.63;5030374;28;20029;-78
2022/12/28 02:52:15;;;;;;;16.02;11.93;;;;;;;7.55;59.82;95934.09;5046900;28;20158;-77
2022/12/28 02:57:54;;;;;;;16.50;11.23;;;;;;;7.53;58.77;95930.97;5047738;28;20055;-76
2022/12/28 03:00:38;;;;;;;15.65;10.68;;;;;;;7.51;58.78;95925.09;5030890;28;20032;-77
2022/12/28 03:03:24;;;;;;;15.52;11.95;;;;;;;7.53;58.86;95920.81;5030244;28;20031;-75
2022/12/28 03:08:55;;;;;;;15.88;10.70;;;;;;;7.60;58.13;95928.22;5047242;28;20044;-76
2022/12/28 03:11:48;;;;;;;15.30;10.98;;;;;;;7.60;57.93;95922.75;5046638;28;20041;-76
2022/12/28 03:14:20;;;;;;;14.93;9.82;;;;;;;7.65;57.33;95917.66;5046027;28;20045;-76
2022/12/28 03:31:06;;;;;;;;;;;;;;;7.46;57.08;95939.97;5032631;28;20182;-76
2022/12/28 03:33:37;;;;;;;10.40;7.63;;;;;;;7.28;56.99;95950.13;5044953;28;20327;-77
2022/12/28 03:36:11;;;;;;;10.50;7.05;;;;;;;7.24;57.21;95949.34;5029294;28;20029;-76
2022/12/28 03:38:57;;;;;;;11.63;7.13;;;;;;;7.21;56.79;95944.66;5044840;28;20029;-78
2022/12/28 03:41:35;;;;;;;9.35;6.45;;;;;;;7.16;56.66;95949.34;5045576;28;20128;-77
2022/12/28 03:44:06;;;;;;;9.23;6.78;;;;;;;7.10;56.75;95944.66;5029176;28;20033;-76
2022/12/28 03:46:43;;;;;;;9.93;6.65;;;;;;;7.06;56.92;95939.19;5028540;28;20036;-76
2022/12/28 03:49:08;;;;;;;21.38;10.73;;;;;;;7.07;56.56;95924.34;5045075;28;20090;-77
2022/12/28 03:51:34;;;;;;;10.25;6.93;;;;;;;7.02;56.36;95916.53;5028023;28;20029;-77
2022/12/28 03:53:59;;;;;;;8.45;6.53;;;;;;;7.02;56.19;95919.25;5044866;28;20059;-77
2022/12/28 03:56:26;;;;;;;9.40;6.05;;;;;;;7.07;55.93;95913.41;5028173;28;20025;-77
2022/12/28 03:58:51;;;;;;;8.88;6.50;;;;;;;7.13;56.00;95911.06;5027998;28;20411;-77
2022/12/28 04:01:17;;;;;;;8.35;6.00;;;;;;;7.10;55.96;95901.69;5044842;28;20428;-77
2022/12/28 04:03:43;;;;;;;9.75;5.85;;;;;;;7.21;55.39;95922.78;5027853;28;20476;-77
2022/12/28 04:06:15;;;;;;;8.73;6.28;;;;;;;7.23;55.24;95914.97;5046463;28;20056;-76
2022/12/28 04:08:41;;;;;;;9.95;5.95;;;;;;;7.33;54.89;95925.13;5027909;28;20028;-77
2022/12/28 04:11:06;;;;;;;8.65;6.10;;;;;;;7.40;54.53;95927.88;5044842;28;20044;-76
2022/12/28 04:13:32;;;;;;;9.98;6.32;;;;;;;7.39;54.29;95912.59;5044488;28;20403;-77
2022/12/28 04:16:08;;;;;;;7.85;5.72;;;;;;;7.49;54.13;95927.44;5045846;28;20048;-77
2022/12/28 04:18:34;;;;;;;8.07;5.72;;;;;;;7.47;53.67;95927.06;5045130;28;20025;-76
2022/12/28 04:20:59;;;;;;;9.07;6.22;;;;;;;7.48;53.62;95940.34;5045725;28;20031;-77
2022/12/28 04:23:25;;;;;;;8.30;5.72;;;;;;;7.53;53.43;95953.66;5045006;28;20021;-77
2022/12/28 04:26:07;;;;;;;8.23;5.78;;;;;;;7.47;53.21;95959.91;5028030;28;20082;-77
2022/12/28 04:28:32;;;;;;;7.80;5.50;;;;;;;7.44;53.29;95959.50;5029930;28;20032;-78
2022/12/28 04:30:58;;;;;;;7.25;5.07;;;;;;;7.38;53.35;95954.81;5046940;28;20032;-77
2022/12/28 04:33:23;;;;;;;6.97;4.85;;;;;;;7.35;53.45;95952.88;5045113;28;20036;-78
2022/12/28 04:35:49;;;;;;;7.05;4.78;;;;;;;7.38;53.29;95958.31;5045414;28;20504;-75
2022/12/28 04:38:14;;;;;;;8.30;5.03;;;;;;;7.45;53.15;95957.53;5044459;28;20029;-77
2022/12/28 04:40:40;;;;;;;6.68;4.93;;;;;;;7.45;52.76;95972.03;5045451;28;20025;-78
2022/12/28 04:43:05;;;;;;;7.47;5.60;;;;;;;7.46;52.64;95961.88;5028128;28;20044;-76
2022/12/28 04:45:31;;;;;;;8.27;5.38;;;;;;;7.51;52.94;95963.41;5028136;28;20427;-76
2022/12/28 04:47:56;;;;;;;6.18;4.90;;;;;;;7.48;52.59;95962.25;5044129;28;20020;-77
2022/12/28 04:50:22;;;;;;;7.70;5.65;;;;;;;7.59;52.42;95970.44;5044411;28;20033;-78
2022/12/28 04:52:48;;;;;;;8.35;5.72;;;;;;;7.56;52.35;95974.72;5044818;28;20431;-76
2022/12/28 04:55:13;;;;;;;7.40;5.35;;;;;;;7.54;52.12;95966.16;5045699;28;20028;-76
2022/12/28 04:57:38;;;;;;;8.27;5.07;;;;;;;7.62;51.87;95975.91;5046540;28;20463;-76
2022/12/28 05:00:05;;;;;;;8.35;5.65;;;;;;;7.68;51.81;95963.41;5045179;28;20430;-77
2022/12/28 05:02:30;;;;;;;6.35;4.82;;;;;;;7.69;51.39;95961.44;5046066;28;20032;-76
2022/12/28 05:04:55;;;;;;;7.55;4.90;;;;;;;7.69;51.33;95961.44;5049132;28;20025;-77
2022/12/28 05:07:21;;;;;;;7.65;4.85;;;;;;;7.73;51.46;95956.72;5031547;28;20064;-76
2022/12/28 05:09:46;;;;;;;6.82;4.72;;;;;;;7.84;50.70;95957.50;5049106;28;20021;-77
2022/12/28 05:12:12;;;;;;;7.97;5.00;;;;;;;7.92;50.33;95961.03;5048259;28;20017;-77
2022/12/28 05:14:37;;;;;;;9.07;5.25;;;;;;;7.97;50.14;95953.19;5049317;28;20040;-77
2022/12/28 05:17:03;;;;;;;8.77;5.32;;;;;;;7.97;50.22;95961.41;5049063;28;20083;-77
2022/12/28 05:19:28;;;;;;;8.13;5.03;;;;;;;8.03;50.07;95959.03;5031594;28;20412;-77
2022/12/28 05:21:54;;;;;;;7.45;4.30;;;;;;;8.06;50.04;95955.50;5048533;28;20503;-77
2022/12/28 05:24:19;;;;;;;7.10;4.35;;;;;;;8.11;49.41;95962.53;5033123;28;20036;-76
2022/12/28 05:26:45;;;;;;;7.75;4.53;;;;;;;8.12;49.35;95964.88;5050478;28;20032;-75
2022/12/28 05:29:10;;;;;;;8.57;5.22;;;;;;;8.12;49.35;95972.31;5049175;28;20033;-76
2022/12/28 05:31:36;;;;;;;5.57;4.10;;;;;;;8.10;49.32;95969.97;5047869;28;20032;-77
2022/12/28 05:34:01;;;;;;;7.45;5.10;;;;;;;8.06;49.34;95971.16;5047675;28;20017;-78
2022/12/28 05:36:27;;;;;;;7.18;5.50;;;;;;;8.03;49.38;95970.00;5048069;28;20029;-77
2022/12/28 05:38:52;;;;;;;7.75;4.90;;;;;;;7.98;49.45;95973.13;5030842;28;20082;-77
2022/12/28 05:41:20;;;;;;;6.75;4.63;;;;;;;7.89;49.75;95973.53;5048271;28;20656;-76
2022/12/28 05:43:46;;;;;;;6.55;4.60;;;;;;;7.82;50.11;95979.03;5047114;28;20029;-78
2022/12/28 05:46:14;;;;;;;7.30;4.53;;;;;;;7.75;50.26;95983.72;5049102;28;20541;-76
2022/12/28 05:48:39;;;;;;;6.00;4.35;;;;;;;7.70;50.59;95985.69;5046453;28;20029;-77
2022/12/28 05:51:06;;;;;;;6.38;4.55;;;;;;;7.68;50.79;95982.56;5030807;28;20416;-77
2022/12/28 05:53:32;;;;;;;6.85;4.90;;;;;;;7.66;51.02;95987.63;5047379;28;20037;-76
2022/12/28 05:56:11;;;;;;;16.30;4.95;;;;;;;7.67;51.19;95983.72;5047944;28;20032;-77
2022/12/28 05:58:37;;;;;;;7.13;4.72;;;;;;;7.66;51.24;95978.66;5047296;28;20028;-77
2022/12/28 06:01:16;;;;;;;8.88;5.25;;;;;;;7.67;51.49;95991.16;5029511;28;20032;-78
2022/12/28 06:03:41;;;;;;;6.85;4.60;;;;;;;7.68;51.48;95990.78;5030515;28;20446;-76
2022/12/28 06:06:11;;;;;;;7.70;5.63;;;;;;;7.75;51.66;95984.50;5046517;28;20170;-76
2022/12/28 06:08:49;;;;;;;7.80;5.47;;;;;;;7.77;51.72;96000.53;5046609;28;20040;-80
2022/12/28 06:11:16;;;;;;;7.45;5.68;;;;;;;7.68;52.24;96009.94;5049091;28;20071;-76
2022/12/28 06:13:41;;;;;;;11.30;7.55;;;;;;;7.57;52.70;96006.44;5029055;28;20425;-76
2022/12/28 06:16:12;;;;;;;7.72;5.72;;;;;;;7.49;52.68;95993.13;5047072;28;20028;-77
2022/12/28 06:18:37;;;;;;;7.15;5.15;;;;;;;7.65;52.44;96004.47;5045873;28;20056;-77
2022/12/28 06:21:28;;;;;;;8.60;5.40;;;;;;;7.72;52.20;96001.72;5047868;28;20079;-77
2022/12/28 06:23:56;;;;;;;7.78;5.07;;;;;;;7.72;52.04;96001.72;5032950;28;20098;-76
2022/12/28 06:26:22;;;;;;;7.68;5.97;;;;;;;7.75;51.98;96000.16;5045450;28;20033;-76
2022/12/28 06:28:47;;;;;;;9.77;6.35;;;;;;;7.71;52.12;95991.94;5030072;28;20052;-76
2022/12/28 06:31:14;;;;;;;8.18;5.72;;;;;;;7.74;52.10;95993.88;5028953;28;20408;-77
2022/12/28 06:33:40;;;;;;;11.35;5.95;;;;;;;7.68;52.01;96001.72;5046347;28;20032;-76
2022/12/28 06:36:13;;;;;;;8.43;5.38;;;;;;;7.78;51.84;96010.31;5029288;28;20032;-77
2022/12/28 06:38:38;;;;;;;8.73;5.13;;;;;;;7.82;51.68;96028.28;5029588;28;20060;-78
2022/12/28 06:41:04;;;;;;;7.97;5.55;;;;;;;7.81;51.77;96025.97;5047798;28;20048;-76
2022/12/28 06:43:33;;;;;;;6.03;5.25;;;;;;;7.80;51.74;96022.44;5028684;28;20051;-77
2022/12/28 06:45:59;;;;;;;5.97;4.85;;;;;;;7.82;51.65;96013.84;5030269;28;20732;-78
2022/12/28 06:48:25;;;;;;;8.32;5.53;;;;;;;7.81;51.51;96015.78;5044926;28;20025;-76
2022/12/28 06:51:00;;;;;;;8.13;5.70;;;;;;;7.84;51.33;96022.41;5046185;28;20029;-77
2022/12/28 06:53:31;;;;;;;8.02;5.50;;;;;;;7.85;50.74;96013.81;5029251;28;20028;-78
2022/12/28 06:56:01;;;;;;;9.45;5.30;;;;;;;7.86;50.42;96020.09;5045979;28;20043;-77
2022/12/28 06:58:27;;;;;;;8.40;5.30;;;;;;;7.80;50.52;96013.44;5047127;28;20108;-78
2022/12/28 07:00:53;;;;;;;8.88;5.82;;;;;;;7.85;50.01;96015.75;5028525;28;20029;-77
2022/12/28 07:03:19;;;;;;;7.47;5.68;;;;;;;7.92;50.13;96005.59;5029833;28;20423;-76
2022/12/28 07:05:44;;;;;;;8.90;5.70;;;;;;;7.93;50.11;96020.06;5044276;28;20028;-76
2022/12/28 07:08:10;;;;;;;9.95;6.00;;;;;;;7.98;49.80;96014.22;5047054;28;20075;-78
2022/12/28 07:10:36;;;;;;;10.43;5.60;;;;;;;8.06;49.66;96018.47;5044799;28;20029;-77
2022/12/28 07:13:02;;;;;;;9.63;6.13;;;;;;;8.16;49.23;96012.22;5046894;28;20021;-77
2022/12/28 07:15:27;;;;;;;8.27;6.00;;;;;;;8.19;49.07;96016.09;5028649;28;20025;-78
2022/12/28 07:17:53;;;;;;;9.15;5.47;;;;;;;8.26;48.87;96010.63;5046437;28;20032;-76
2022/12/28 07:20:18;;;;;;;8.63;5.72;;;;;;;8.35;48.89;96015.69;5047402;28;20017;-77
2022/12/28 07:22:44;;;;;;;10.05;5.68;;;;;;;8.42;48.92;96016.47;5045742;28;20021;-76
2022/12/28 07:25:09;;;;;;;9.02;5.57;;;;;;;8.53;48.62;96016.41;5046540;28;20025;-78
2022/12/28 07:27:35;;;;;;;9.90;6.05;;;;;;;8.68;48.23;96017.94;5045780;28;20092;-78
2022/12/28 07:30:00;;;;;;;12.15;7.50;;;;;;;8.74;47.87;96015.56;5045253;28;20043;-77
2022/12/28 07:32:26;;;;;;;11.23;7.20;;;;;;;8.87;47.52;96024.13;5045789;28;20499;-78
2022/12/28 07:34:51;;;;;;;11.18;7.90;;;;;;;9.00;47.18;96033.44;5046296;28;20025;-76
2022/12/28 07:37:16;;;;;;;16.98;9.25;;;;;;;9.06;47.01;96031.88;5046792;28;20087;-76
2022/12/28 07:39:42;;;;;;;17.83;8.85;;;;;;;9.09;46.64;96030.28;5045505;28;20017;-76
2022/12/28 07:42:10;;;;;;;14.77;7.93;;;;;;;9.08;46.83;96029.50;5046994;28;20404;-77
2022/12/28 07:44:36;;;;;;;12.07;7.47;;;;;;;9.13;46.80;96037.31;5045485;28;20031;-76
2022/12/28 07:47:01;;;;;;;13.55;7.68;;;;;;;9.18;46.74;96034.16;5046855;28;20025;-76
2022/12/28 07:49:27;;;;;;;11.93;7.55;;;;;;;9.21;46.69;96040.78;5043880;28;20033;-77
2022/12/28 07:51:52;;;;;;;12.40;6.35;;;;;;;9.12;46.80;96040.44;5045122;28;20549;-77
2022/12/28 07:54:18;;;;;;;11.27;5.95;;;;;;;9.19;46.29;96040.41;5048902;28;20074;-77
2022/12/28 07:56:43;;;;;;;8.75;5.13;;;;;;;9.11;46.31;96034.16;5047048;28;20062;-77
2022/12/28 07:59:08;;;;;;;9.32;6.10;;;;;;;9.01;46.74;96035.03;5045814;28;20032;-77
2022/12/28 08:01:34;;;;;;;6.53;5.05;;;;;;;8.91;47.12;96031.16;5027890;28;20411;-77
2022/12/28 08:04:02;;;;;;;8.75;5.78;;;;;;;8.89;47.08;96032.72;5029201;28;20649;-77
2022/12/28 08:06:28;;;;;;;7.60;5.53;;;;;;;8.82;47.18;96027.28;5027844;28;20118;-76
2022/12/28 08:08:55;;;;;;;10.18;5.90;;;;;;;8.74;47.28;96032.00;5044942;28;20039;-76
2022/12/28 08:11:22;;;;;;;8.38;5.25;;;;;;;8.69;47.16;96035.16;5028314;28;20040;-76
2022/12/28 08:13:48;;;;;;;7.70;5.45;;;;;;;8.66;47.34;96031.28;5028314;28;20036;-76
2022/12/28 08:16:14;;;;;;;8.23;6.10;;;;;;;8.69;47.43;96035.94;5045473;28;20021;-76
2022/12/28 08:18:40;;;;;;;7.47;5.25;;;;;;;8.74;46.75;96040.25;5044238;28;20021;-77
2022/12/28 08:21:16;;;;;;;9.32;5.57;;;;;;;8.67;47.14;96038.31;5046650;28;20116;-77
2022/12/28 08:23:41;;;;;;;7.35;5.05;;;;;;;8.55;47.18;96043.47;5044208;28;20029;-77
2022/12/28 08:26:08;;;;;;;6.75;5.18;;;;;;;8.39;47.92;96044.66;5028230;28;20457;-76
2022/12/28 08:28:33;;;;;;;8.98;5.55;;;;;;;8.30;48.26;96047.00;5045160;28;20021;-77
2022/12/28 08:31:05;;;;;;;10.75;5.32;;;;;;;8.20;48.54;96048.59;5045912;28;20029;-77
2022/12/28 08:33:30;;;;;;;6.53;4.88;;;;;;;8.17;48.69;96043.13;5044415;28;20116;-75
2022/12/28 08:35:56;;;;;;;7.93;4.97;;;;;;;8.12;49.09;96047.03;5027747;28;20028;-77
2022/12/28 08:38:21;;;;;;;7.90;5.15;;;;;;;8.16;49.44;96055.25;5048982;28;20115;-76
2022/12/28 08:40:54;;;;;;;9.95;5.68;;;;;;;8.11;49.41;96045.47;5048635;28;20033;-77
2022/12/28 08:43:20;;;;;;;7.95;5.05;;;;;;;8.13;49.43;96045.06;5048811;28;20475;-77
2022/12/28 08:46:01;;;;;;;6.60;4.72;;;;;;;8.18;49.34;96050.16;5047471;28;20047;-77
2022/12/28 08:48:27;;;;;;;8.50;5.55;;;;;;;8.12;49.13;96047.03;5031973;28;20092;-76
2022/12/28 08:50:52;;;;;;;8.55;4.95;;;;;;;8.10;49.35;96043.13;5031760;28;20407;-77
2022/12/28 08:53:18;;;;;;;9.68;5.30;;;;;;;8.08;49.34;96034.50;5047392;28;20025;-78
2022/12/28 08:55:43;;;;;;;8.13;6.72;;;;;;;8.23;49.19;96044.28;5031776;28;20017;-76
2022/12/28 08:58:09;;;;;;;10.55;7.20;;;;;;;8.24;49.15;96038.41;5048813;28;20018;-76
2022/12/28 09:00:34;;;;;;;11.48;6.57;;;;;;;8.29;49.07;96034.47;5049165;28;20025;-76
2022/12/28 09:03:00;;;;;;;10.23;5.50;;;;;;;8.44;49.04;96038.00;5047348;28;20028;-77
2022/12/28 09:05:25;;;;;;;8.35;5.50;;;;;;;8.53;49.05;96027.38;5047727;28;20025;-77
2022/12/28 09:07:51;;;;;;;9.65;5.88;;;;;;;8.50;49.43;96019.97;5047176;28;20075;-76
2022/12/28 09:10:16;;;;;;;11.70;5.97;;;;;;;8.54;49.09;96017.97;5047144;28;20497;-77
2022/12/28 09:12:42;;;;;;;9.15;6.10;;;;;;;8.51;49.46;96018.78;5048087;28;20036;-78
2022/12/28 09:15:08;;;;;;;9.93;5.70;;;;;;;8.58;49.88;96021.50;5030466;28;20395;-76
2022/12/28 09:17:33;;;;;;;10.20;6.50;;;;;;;8.60;49.88;96019.16;5049210;28;20032;-75
2022/12/28 09:19:58;;;;;;;13.90;6.75;;;;;;;8.63;49.69;96017.56;5048262;28;20028;-76
2022/12/28 09:22:24;;;;;;;12.20;7.00;;;;;;;8.68;50.09;96006.19;5048928;28;20032;-77
2022/12/28 09:24:49;;;;;;;10.48;6.70;;;;;;;8.69;49.74;96007.75;5046996;28;20021;-78
2022/12/28 09:27:15;;;;;;;9.85;6.70;;;;;;;8.73;49.80;96009.31;5031026;28;20032;-78
2022/12/28 09:29:40;;;;;;;9.18;6.65;;;;;;;8.80;49.96;96007.72;5047293;28;20029;-77
2022/12/28 09:32:06;;;;;;;11.05;7.07;;;;;;;8.88;49.83;96003.72;5048378;28;20025;-75
2022/12/28 09:34:31;;;;;;;11.43;7.20;;;;;;;8.90;49.94;96002.16;5048967;28;20066;-76
2022/12/28 09:36:56;;;;;;;8.50;6.03;;;;;;;9.01;49.29;96002.13;5047984;28;20094;-77
2022/12/28 09:39:23;;;;;;;10.63;6.88;;;;;;;9.04;48.79;95991.09;5031065;28;20025;-76
2022/12/28 09:42:07;;;;;;;12.13;7.55;;;;;;;9.05;48.89;95986.41;5046521;28;20039;-76
2022/12/28 09:44:32;;;;;;;;;;;;;;;8.97;49.46;95985.66;5048698;28;20115;-76
2022/12/28 09:47:07;;;;;;;9.63;5.95;;;;;;;8.98;48.65;95981.75;5048583;28;20000;-79
2022/12/28 09:49:54;;;;;;;10.73;6.65;;;;;;;9.08;48.68;95973.84;5046318;28;20182;-77
2022/12/28 09:52:59;;;;;;;13.43;9.13;;;;;;;9.20;48.34;95976.13;5048466;28;20029;-77
2022/12/28 09:55:25;;;;;;;13.48;9.15;;;;;;;9.18;48.26;95967.53;5037848;28;20110;-77
2022/12/28 09:57:52;;;;;;;15.93;9.75;;;;;;;9.16;48.08;95965.16;5029458;28;20021;-77
2022/12/28 10:00:22;;;;;;;14.95;9.50;;;;;;;9.24;47.74;95961.22;5030540;28;20044;-76
2022/12/28 10:02:54;;;;;;;10.13;8.27;;;;;;;9.31;47.54;95960.38;5046124;28;20111;-77
2022/12/28 10:05:20;;;;;;;10.27;6.55;;;;;;;9.39;46.92;95955.59;5047210;28;20032;-76
2022/12/28 10:07:45;;;;;;;9.50;6.35;;;;;;;9.42;46.83;95950.09;5029604;28;20456;-76
2022/12/28 10:10:17;;;;;;;9.10;5.63;;;;;;;9.49;46.53;95949.25;5046586;28;20095;-75
2022/12/28 10:12:44;;;;;;;9.27;5.88;;;;;;;9.57;45.69;95948.75;5029869;28;20025;-77
2022/12/28 10:15:13;;;;;;;14.57;6.30;;;;;;;9.63;44.95;95946.34;5029650;28;20040;-77
2022/12/28 10:17:38;;;;;;;12.32;6.80;;;;;;;9.67;45.12;95949.88;5030131;28;20418;-77
2022/12/28 10:20:06;;;;;;;9.55;7.47;;;;;;;9.74;44.86;95949.78;5045854;28;20025;-76
2022/12/28 10:22:36;;;;;;;10.70;6.03;;;;;;;9.84;44.66;95934.41;5047754;28;20366;-76
2022/12/28 10:25:05;;;;;;;9.98;5.68;;;;;;;9.94;44.56;95944.50;5031402;28;20048;-78
2022/12/28 10:27:30;;;;;;;11.82;6.22;;;;;;;9.99;44.51;95943.28;5030356;28;20029;-78
2022/12/28 10:29:58;;;;;;;12.43;6.05;;;;;;;10.08;44.44;95941.59;5047010;28;20036;-78
2022/12/28 10:32:23;;;;;;;9.32;5.65;;;;;;;10.19;43.74;95937.97;5029546;28;20033;-77
2022/12/28 10:34:52;;;;;;;8.93;6.15;;;;;;;10.15;43.93;95942.72;5046913;28;20036;-78
2022/12/28 10:37:18;;;;;;;8.88;5.85;;;;;;;10.16;44.33;95936.03;5044265;28;20025;-77
2022/12/28 10:39:56;;;;;;;12.70;6.05;;;;;;;10.17;44.47;95940.34;5011685;28;20096;-77
2022/12/28 10:42:28;;;;;;;7.82;5.88;;;;;;;10.21;44.31;95941.88;5046550;28;20036;-77
2022/12/28 10:44:59;;;;;;;13.57;5.65;;;;;;;10.27;44.15;95931.25;5045514;28;20028;-81
2022/12/28 10:47:29;;;;;;;12.75;6.97;;;;;;;10.38;44.16;95931.88;5030201;28;20025;-79
2022/12/28 10:49:54;;;;;;;13.23;6.10;;;;;;;10.48;43.93;95935.69;5045157;28;20040;-79
2022/12/28 10:52:20;;;;;;;10.63;6.72;;;;;;;10.62;43.53;95939.03;5046767;28;20025;-78
2022/12/28 10:54:46;;;;;;;10.95;6.55;;;;;;;10.65;43.27;95945.66;5028678;28;20402;-78
2022/12/28 10:57:19;;;;;;;9.57;6.60;;;;;;;10.68;43.42;95939.34;5029588;28;20036;-76
2022/12/28 10:59:49;;;;;;;11.70;5.72;;;;;;;10.62;43.14;95933.53;5045525;28;20094;-75
2022/12/28 11:02:28;;;;;;;15.25;8.63;;;;;;;10.60;43.58;95943.38;5013781;28;20029;-76
2022/12/28 11:04:58;;;;;;;14.40;9.23;;;;;;;10.52;43.72;95937.19;5046938;28;20368;-77
2022/12/28 11:07:28;;;;;;;12.27;7.50;;;;;;;10.37;43.68;95936.59;5044628;28;20507;-76
2022/12/28 11:10:10;;;;;;;13.70;7.18;;;;;;;10.27;44.26;95942.22;5045493;28;20032;-76
2022/12/28 11:12:38;;;;;;;12.63;7.05;;;;;;;10.27;44.17;95939.47;5030331;28;20032;-76
2022/12/28 11:15:04;;;;;;;12.82;6.38;;;;;;;10.22;44.61;95945.41;5028994;28;20039;-77
2022/12/28 11:17:33;;;;;;;11.00;6.00;;;;;;;10.08;44.83;95941.59;5045080;28;20020;-78
2022/12/28 11:20:24;;;;;;;11.13;6.30;;;;;;;10.06;44.96;95944.00;5028230;28;20029;-77
2022/12/28 11:22:49;;;;;;;13.57;7.72;;;;;;;10.04;45.08;95953.84;5046445;28;20039;-76
2022/12/28 11:25:16;;;;;;;15.27;8.25;;;;;;;9.93;45.71;95956.69;5028012;28;20496;-77
2022/12/28 11:27:42;;;;;;;14.13;7.45;;;;;;;9.90;46.18;95956.72;5045240;28;20098;-78
2022/12/28 11:30:15;;;;;;;17.20;9.30;;;;;;;9.91;46.42;95955.53;5028160;28;20101;-76
2022/12/28 11:33:00;;;;;;;13.05;7.20;;;;;;;9.80;46.54;95961.88;5028580;28;20021;-76
2022/12/28 11:35:34;;;;;;;11.98;7.45;;;;;;;9.70;47.01;95957.31;5045184;28;20450;-76
2022/12/28 11:38:01;;;;;;;15.88;7.30;;;;;;;9.54;47.42;95951.56;5027934;28;20029;-74
2022/12/28 11:40:46;;;;;;;9.15;6.10;;;;;;;9.48;47.83;95948.47;5045248;28;20486;-77
2022/12/28 11:43:27;;;;;;;11.35;6.32;;;;;;;9.56;48.06;95951.91;5028462;28;20025;-75
2022/12/28 11:45:53;;;;;;;13.93;7.07;;;;;;;9.61;47.82;95948.75;5045483;28;20526;-77
2022/12/28 11:49:07;;;;;;;10.73;6.85;;;;;;;9.67;47.68;95949.88;5045051;28;20033;-77
2022/12/28 11:51:33;;;;;;;10.43;6.70;;;;;;;9.73;47.91;95939.22;5028791;28;20346;-76
2022/12/28 11:54:36;;;;;;;13.93;7.93;;;;;;;9.73;47.73;95930.97;5044562;28;20095;-76
2022/12/28 11:57:02;;;;;;;17.38;9.32;;;;;;;9.69;47.74;95930.22;5046572;28;20032;-76
2022/12/28 11:59:32;;;;;;;14.10;8.07;;;;;;;9.79;47.68;95934.84;5027370;28;20024;-76
2022/12/28 12:02:01;;;;;;;14.80;8.63;;;;;;;9.83;47.56;95930.09;5044862;28;20111;-76
2022/12/28 12:04:29;;;;;;;19.73;10.65;;;;;;;9.83;47.60;95924.63;5045906;28;20025;-76
2022/12/28 12:06:55;;;;;;;21.63;10.30;;;;;;;9.89;47.61;95911.22;5044004;28;20050;-77
2022/12/28 12:09:21;;;;;;;16.95;9.75;;;;;;;9.90;47.59;95913.53;5045686;28;20079;-77